Rinchinlhumbe, Mongolia
Current Conditions -  °F | °C
As of 1:00 AM on Friday 31 Oct 2014 (Local Time) from UIII Reporting Station
Clear Clear  
Wind Chill:   Ceiling: Unl
Heat Index: 16°   Visibility: 6mi
Dew Point: 12°   Wind: 7mph
Humidity: 86%   Direction: 100°E
Pressure: 30.03"   Gusts: NA
Location:  51.11°N, 99.67°E
Report Text: UIII 301700Z 10003MPS CAVOK M09/M11 Q1017 NOSIG RMK QFE720/096012CLRD60
Loading
Personal Weather Stations






























Interactive Weather Map
Tropical Storm Tracking
New forecast layout! Learn more

10-Day Weather Forecast

Advertisements
Track Severe Weather on mobile